Time;durP1;ratioP1;P1;durP2;ratioP2;P2;SDS_P1;SDS_P2;PMS_P1;PMS_P2;Temp;Humidity;BMP_temperature;BMP_pressure;BME280_temperature;BME280_humidity;BME280_pressure;Samples;Min_cycle;Max_cycle;Signal;HPM_P1;HPM_P2
2021/06/24 00:00:52;;;;;;;38.83;25.00;;;20.30;99.90;;;;;;5071538;28;20501;-79
2021/06/24 00:03:19;;;;;;;42.42;25.30;;;20.30;99.90;;;;;;5071776;28;20031;-78
2021/06/24 00:05:45;;;;;;;36.38;23.70;;;20.20;99.90;;;;;;5067883;28;20033;-77
2021/06/24 00:08:12;;;;;;;37.97;26.58;;;20.30;99.90;;;;;;5069847;28;20075;-78
2021/06/24 00:10:41;;;;;;;37.17;24.88;;;20.30;99.90;;;;;;5071737;28;20032;-78
2021/06/24 00:13:08;;;;;;;34.92;24.48;;;20.20;99.90;;;;;;5072352;28;20058;-77
2021/06/24 00:15:34;;;;;;;35.00;25.38;;;20.30;99.90;;;;;;5072232;28;20027;-78
2021/06/24 00:18:00;;;;;;;39.53;26.38;;;20.30;99.90;;;;;;5072877;28;20095;-77
2021/06/24 00:20:26;;;;;;;35.78;25.27;;;20.20;99.90;;;;;;5073442;28;20020;-78
2021/06/24 00:22:51;;;;;;;37.70;26.13;;;20.20;99.90;;;;;;5073053;28;20025;-75
2021/06/24 00:25:17;;;;;;;39.40;25.33;;;20.20;99.90;;;;;;5072469;28;20021;-76
2021/06/24 00:27:43;;;;;;;37.15;25.63;;;20.20;99.90;;;;;;5073239;28;20032;-75
2021/06/24 00:30:10;;;;;;;41.88;25.75;;;20.20;99.90;;;;;;5073415;28;20033;-76
2021/06/24 00:32:36;;;;;;;42.17;26.10;;;20.30;99.90;;;;;;5073188;28;20021;-75
2021/06/24 00:35:03;;;;;;;40.15;26.02;;;20.30;99.90;;;;;;5073488;28;20031;-80
2021/06/24 00:37:29;;;;;;;34.00;24.70;;;20.30;99.90;;;;;;5071902;28;20039;-80
2021/06/24 00:39:56;;;;;;;37.85;24.92;;;20.30;99.90;;;;;;5071713;28;20111;-80
2021/06/24 00:42:23;;;;;;;39.95;25.92;;;20.40;99.90;;;;;;5073377;28;20386;-80
2021/06/24 00:44:50;;;;;;;40.67;26.25;;;20.40;99.90;;;;;;5073160;28;20036;-80
2021/06/24 00:47:15;;;;;;;40.38;25.08;;;20.50;99.90;;;;;;5071772;28;20086;-80
2021/06/24 00:49:41;;;;;;;37.90;25.45;;;20.50;99.90;;;;;;5071473;28;20024;-80
2021/06/24 00:52:07;;;;;;;34.03;25.88;;;20.50;99.90;;;;;;5073030;28;20020;-80
2021/06/24 00:54:33;;;;;;;36.22;25.48;;;20.50;99.90;;;;;;5072791;28;20062;-80
2021/06/24 00:56:59;;;;;;;40.92;26.48;;;20.50;99.90;;;;;;5052697;28;20490;-80
2021/06/24 00:59:26;;;;;;;41.08;26.25;;;20.60;99.90;;;;;;5053363;28;20100;-80
2021/06/24 01:01:52;;;;;;;42.85;25.75;;;20.60;99.90;;;;;;5051559;28;20094;-80
2021/06/24 01:04:24;;;;;;;35.80;25.73;;;20.60;99.90;;;;;;5052927;28;20108;-80
2021/06/24 01:06:51;;;;;;;38.97;26.92;;;20.60;99.90;;;;;;5067501;28;20085;-80
2021/06/24 01:09:17;;;;;;;35.83;25.63;;;20.70;99.90;;;;;;5071516;28;20035;-81
2021/06/24 01:11:43;;;;;;;37.53;26.30;;;20.60;99.90;;;;;;5066384;28;20017;-81
2021/06/24 01:14:09;;;;;;;38.33;26.00;;;20.60;99.90;;;;;;5060035;28;20024;-81
2021/06/24 01:16:36;;;;;;;39.60;25.92;;;20.60;99.90;;;;;;5071325;28;20066;-81
2021/06/24 01:19:03;;;;;;;38.50;25.75;;;20.60;99.90;;;;;;5072755;28;20024;-80
2021/06/24 01:21:29;;;;;;;38.45;26.65;;;20.70;99.90;;;;;;5071193;28;20032;-80
2021/06/24 01:23:54;;;;;;;34.45;25.33;;;20.70;99.90;;;;;;5072954;28;20367;-80
2021/06/24 01:26:21;;;;;;;34.05;26.05;;;20.70;99.90;;;;;;5071075;28;20035;-80
2021/06/24 01:28:47;;;;;;;38.25;27.00;;;20.70;99.90;;;;;;5072683;28;20051;-81
2021/06/24 01:31:14;;;;;;;38.38;25.23;;;20.70;99.90;;;;;;5076529;28;20521;-80
2021/06/24 01:33:40;;;;;;;37.42;25.67;;;20.60;99.90;;;;;;5074677;28;20119;-80
2021/06/24 01:36:06;;;;;;;38.85;25.10;;;20.60;99.90;;;;;;5075026;28;20028;-80
2021/06/24 01:38:33;;;;;;;45.00;27.73;;;20.60;99.90;;;;;;5075189;28;20033;-80
2021/06/24 01:41:00;;;;;;;38.80;27.20;;;20.60;99.90;;;;;;5076251;28;20054;-81
2021/06/24 01:43:26;;;;;;;40.10;26.30;;;20.50;99.90;;;;;;5075112;28;20025;-80
2021/06/24 01:45:54;;;;;;;39.40;27.40;;;20.50;99.90;;;;;;5076023;28;20031;-80
2021/06/24 01:48:21;;;;;;;39.03;26.58;;;20.50;99.90;;;;;;5056200;28;20141;-80
2021/06/24 01:50:47;;;;;;;42.55;27.55;;;20.40;99.90;;;;;;5075052;28;20027;-81
2021/06/24 01:53:13;;;;;;;40.13;28.45;;;20.40;99.90;;;;;;5076094;28;20025;-81
2021/06/24 01:55:40;;;;;;;40.75;28.42;;;20.30;99.90;;;;;;5074751;28;20393;-81
2021/06/24 01:58:08;;;;;;;36.90;27.15;;;20.30;99.90;;;;;;5075367;28;20032;-81
2021/06/24 02:00:34;;;;;;;41.72;27.95;;;20.20;99.90;;;;;;5075812;28;20021;-80
2021/06/24 02:03:00;;;;;;;44.60;27.88;;;20.10;99.90;;;;;;5075560;28;20032;-81
2021/06/24 02:05:27;;;;;;;42.15;28.85;;;20.10;99.90;;;;;;5074193;28;20024;-81
2021/06/24 02:07:52;;;;;;;42.13;28.20;;;20.10;99.90;;;;;;5075294;28;20031;-81
2021/06/24 02:10:19;;;;;;;41.22;29.88;;;20.10;99.90;;;;;;5070650;28;20028;-81
2021/06/24 02:12:44;;;;;;;41.72;26.75;;;20.10;99.90;;;;;;5073650;28;20439;-81
2021/06/24 02:15:12;;;;;;;44.70;28.73;;;20.10;99.90;;;;;;5075026;28;20024;-81
2021/06/24 02:17:39;;;;;;;44.15;28.83;;;20.10;99.90;;;;;;5057856;28;20037;-81
2021/06/24 02:20:07;;;;;;;44.70;30.75;;;20.10;99.90;;;;;;5074211;28;20009;-81
2021/06/24 02:22:34;;;;;;;41.40;29.20;;;20.10;99.90;;;;;;5074232;28;20029;-81
2021/06/24 02:25:00;;;;;;;43.67;30.95;;;20.10;99.90;;;;;;5074218;28;20024;-81
2021/06/24 02:27:25;;;;;;;43.83;30.08;;;20.00;99.90;;;;;;5076896;28;20072;-80
2021/06/24 02:29:51;;;;;;;50.70;31.20;;;20.00;99.90;;;;;;5075519;28;20056;-81
2021/06/24 02:32:17;;;;;;;48.67;31.58;;;20.00;99.90;;;;;;5074234;28;20025;-81
2021/06/24 02:34:44;;;;;;;47.55;30.45;;;20.00;99.90;;;;;;5073320;28;20024;-81
2021/06/24 02:37:10;;;;;;;46.70;32.13;;;20.00;99.90;;;;;;5054763;28;20132;-81
2021/06/24 02:39:36;;;;;;;54.50;32.05;;;20.00;99.90;;;;;;5061682;28;20481;-81
2021/06/24 02:42:02;;;;;;;53.30;32.30;;;20.00;99.90;;;;;;5074363;28;20028;-81
2021/06/24 02:44:27;;;;;;;46.97;32.00;;;20.00;99.90;;;;;;5073973;28;20474;-81
2021/06/24 02:46:53;;;;;;;48.08;31.83;;;20.00;99.90;;;;;;5075204;28;20092;-81
2021/06/24 02:49:19;;;;;;;50.25;32.83;;;20.00;99.90;;;;;;5074934;28;20486;-81
2021/06/24 02:51:46;;;;;;;55.45;34.50;;;20.10;99.90;;;;;;5073809;28;20443;-81
2021/06/24 02:54:16;;;;;;;54.58;35.38;;;20.10;99.90;;;;;;5075659;28;20047;-81
2021/06/24 02:56:42;;;;;;;55.20;34.22;;;20.10;99.90;;;;;;5073438;28;20474;-81
2021/06/24 02:59:08;;;;;;;46.40;32.53;;;20.10;99.90;;;;;;5075171;28;20025;-81
2021/06/24 03:01:36;;;;;;;49.85;31.23;;;20.10;99.90;;;;;;5074827;28;20016;-81
2021/06/24 03:04:02;;;;;;;54.05;33.58;;;20.20;99.90;;;;;;5074784;28;20028;-82
2021/06/24 03:06:28;;;;;;;51.15;32.55;;;20.10;99.90;;;;;;5074761;28;20043;-81
2021/06/24 03:08:53;;;;;;;55.28;34.25;;;20.20;99.90;;;;;;5072581;28;20406;-82
2021/06/24 03:11:19;;;;;;;52.17;34.25;;;20.20;99.90;;;;;;5053645;28;20017;-81
2021/06/24 03:13:49;;;;;;;47.95;33.28;;;20.20;99.90;;;;;;5053486;28;20021;-81
2021/06/24 03:16:15;;;;;;;53.25;33.95;;;20.20;99.90;;;;;;5053358;28;20024;-81
2021/06/24 03:18:41;;;;;;;49.25;33.08;;;20.20;99.90;;;;;;5053316;28;20067;-81
2021/06/24 03:21:06;;;;;;;53.55;32.88;;;20.20;99.90;;;;;;5054514;28;20017;-81
2021/06/24 03:23:32;;;;;;;62.58;37.97;;;20.20;99.90;;;;;;5054189;28;20017;-81
2021/06/24 03:25:58;;;;;;;56.15;34.60;;;20.30;99.90;;;;;;5054479;28;20490;-81
2021/06/24 03:28:24;;;;;;;56.70;35.25;;;20.30;99.90;;;;;;5053551;28;20021;-81
2021/06/24 03:30:49;;;;;;;58.83;36.60;;;20.30;99.90;;;;;;5053164;28;20060;-81
2021/06/24 03:33:15;;;;;;;50.83;34.72;;;20.30;99.90;;;;;;5054164;28;20382;-82
2021/06/24 03:35:44;;;;;;;52.35;35.35;;;20.30;99.90;;;;;;5055070;28;20437;-81
2021/06/24 03:38:10;;;;;;;54.00;35.83;;;20.30;99.90;;;;;;5071292;28;20505;-81
2021/06/24 03:40:36;;;;;;;55.97;35.85;;;20.30;99.90;;;;;;5070307;28;20112;-81
2021/06/24 03:43:01;;;;;;;53.47;35.58;;;20.30;99.90;;;;;;5072904;28;20024;-81
2021/06/24 03:45:27;;;;;;;59.35;36.00;;;20.40;99.90;;;;;;5072826;28;20440;-82
2021/06/24 03:47:53;;;;;;;62.63;40.58;;;20.40;99.90;;;;;;5072711;28;20017;-81
2021/06/24 03:50:19;;;;;;;66.40;38.78;;;20.50;99.90;;;;;;5072792;28;20021;-81
2021/06/24 03:52:44;;;;;;;62.47;38.80;;;20.50;99.90;;;;;;5073506;28;20381;-81
2021/06/24 03:55:11;;;;;;;62.67;39.25;;;20.60;99.90;;;;;;5073605;28;20017;-81
2021/06/24 03:57:37;;;;;;;65.47;40.65;;;20.60;99.90;;;;;;5073323;28;20037;-82
2021/06/24 04:00:05;;;;;;;64.53;38.85;;;20.70;99.90;;;;;;5073766;28;20032;-83
2021/06/24 04:02:30;;;;;;;63.83;40.33;;;20.80;99.90;;;;;;5072382;28;20033;-83
2021/06/24 04:04:56;;;;;;;68.35;42.00;;;20.80;99.90;;;;;;5072645;28;20021;-82
2021/06/24 04:07:22;;;;;;;64.60;39.60;;;20.90;99.90;;;;;;5070769;28;20490;-82
2021/06/24 04:09:48;;;;;;;64.95;40.53;;;20.90;99.90;;;;;;5074223;28;20036;-82
2021/06/24 04:12:14;;;;;;;64.97;39.20;;;20.90;99.90;;;;;;5072044;28;20028;-82
2021/06/24 04:14:40;;;;;;;60.72;41.72;;;20.90;99.90;;;;;;5072517;28;20039;-82
2021/06/24 04:17:05;;;;;;;66.38;40.15;;;21.00;99.90;;;;;;5073562;28;20543;-82
2021/06/24 04:19:31;;;;;;;62.13;42.05;;;21.00;99.90;;;;;;5072177;28;20363;-83
2021/06/24 04:21:57;;;;;;;66.45;40.50;;;21.10;99.90;;;;;;5072177;28;20492;-81
2021/06/24 04:24:22;;;;;;;65.07;39.42;;;21.10;99.90;;;;;;5072909;28;20055;-82
2021/06/24 04:26:49;;;;;;;69.45;42.92;;;21.10;99.90;;;;;;5072023;28;20059;-82
2021/06/24 04:29:14;;;;;;;65.43;40.88;;;21.20;99.90;;;;;;5072140;28;20052;-82
2021/06/24 04:31:40;;;;;;;60.95;40.38;;;21.20;99.90;;;;;;5073011;28;20055;-82
2021/06/24 04:34:06;;;;;;;62.78;39.28;;;21.20;99.90;;;;;;5072134;28;20017;-82
2021/06/24 04:36:33;;;;;;;56.20;38.53;;;21.20;99.90;;;;;;5072964;28;20090;-82
2021/06/24 04:38:59;;;;;;;65.68;40.80;;;21.40;99.90;;;;;;5073063;28;20037;-82
2021/06/24 04:41:24;;;;;;;64.35;41.08;;;21.40;99.90;;;;;;5072840;28;20025;-81
2021/06/24 04:43:50;;;;;;;61.20;40.35;;;21.50;99.90;;;;;;5071671;28;20024;-82
2021/06/24 04:46:16;;;;;;;56.17;37.70;;;21.60;99.90;;;;;;5073079;28;20466;-82
2021/06/24 04:48:41;;;;;;;70.63;44.83;;;21.70;99.90;;;;;;5073122;28;20473;-83
2021/06/24 04:51:07;;;;;;;62.13;39.53;;;21.80;99.90;;;;;;5073045;28;20021;-82
2021/06/24 04:53:33;;;;;;;69.43;42.38;;;21.80;99.90;;;;;;5065311;28;20494;-82
2021/06/24 04:55:59;;;;;;;66.15;41.63;;;22.00;99.90;;;;;;5067407;28;20064;-82
2021/06/24 04:58:24;;;;;;;58.63;40.60;;;22.10;99.90;;;;;;5070959;28;20375;-82
2021/06/24 05:00:50;;;;;;;62.75;39.75;;;22.20;99.90;;;;;;5071646;28;20118;-82
2021/06/24 05:03:16;;;;;;;61.20;42.05;;;22.20;99.90;;;;;;5071503;28;20035;-82
2021/06/24 05:05:43;;;;;;;59.50;39.05;;;22.20;99.90;;;;;;5063916;28;20024;-82
2021/06/24 05:08:14;;;;;;;61.83;41.38;;;22.30;99.90;;;;;;5070713;28;20039;-82
2021/06/24 05:10:40;;;;;;;56.37;39.00;;;22.30;99.90;;;;;;5069712;28;20029;-81
2021/06/24 05:13:06;;;;;;;57.85;39.42;;;22.40;99.90;;;;;;5071438;28;20051;-82
2021/06/24 05:15:32;;;;;;;58.45;41.30;;;22.60;99.90;;;;;;5070337;28;20071;-81
2021/06/24 05:17:58;;;;;;;57.50;37.83;;;22.70;99.90;;;;;;5068168;28;20050;-82
2021/06/24 05:20:26;;;;;;;52.95;35.63;;;22.80;99.90;;;;;;5069696;28;20119;-81
2021/06/24 05:22:54;;;;;;;53.88;36.17;;;22.80;99.90;;;;;;5071711;28;20051;-82
2021/06/24 05:25:20;;;;;;;54.25;38.58;;;22.80;99.90;;;;;;5070091;28;20079;-82
2021/06/24 05:27:46;;;;;;;51.03;37.67;;;22.80;99.90;;;;;;5069879;28;20048;-81
2021/06/24 05:30:12;;;;;;;57.47;39.25;;;22.70;99.90;;;;;;5066775;28;20037;-83
2021/06/24 05:32:38;;;;;;;48.08;35.78;;;22.60;99.90;;;;;;5069347;28;20094;-82
2021/06/24 05:35:04;;;;;;;51.00;37.22;;;22.70;99.90;;;;;;5069770;28;20481;-82
2021/06/24 05:37:29;;;;;;;56.97;38.42;;;22.70;99.90;;;;;;5069165;28;20028;-82
2021/06/24 05:39:55;;;;;;;56.35;37.35;;;22.80;99.90;;;;;;5078072;28;20043;-82
2021/06/24 05:42:21;;;;;;;54.67;38.60;;;22.80;99.90;;;;;;5073373;28;20024;-83
2021/06/24 05:44:46;;;;;;;53.08;36.08;;;22.80;99.90;;;;;;5071070;28;20016;-82
2021/06/24 05:47:12;;;;;;;52.10;36.65;;;22.80;99.90;;;;;;5067465;28;20447;-83
2021/06/24 05:49:38;;;;;;;55.25;37.85;;;22.90;99.90;;;;;;5068262;28;20074;-82
2021/06/24 05:52:04;;;;;;;50.53;37.35;;;23.00;99.90;;;;;;5066930;28;20047;-82
2021/06/24 05:54:29;;;;;;;53.00;37.15;;;23.30;99.90;;;;;;5068213;28;20035;-82
2021/06/24 05:56:55;;;;;;;53.83;36.67;;;23.30;99.90;;;;;;5067948;28;20024;-82
2021/06/24 05:59:21;;;;;;;52.47;36.63;;;23.60;99.90;;;;;;5066320;28;20017;-82
2021/06/24 06:01:51;;;;;;;50.58;33.42;;;23.70;99.90;;;;;;5067358;28;20044;-82
2021/06/24 06:04:17;;;;;;;57.63;37.33;;;24.00;99.90;;;;;;5070478;28;20029;-83
2021/06/24 06:06:43;;;;;;;53.30;33.40;;;24.20;99.90;;;;;;5069406;28;20028;-83
2021/06/24 06:09:08;;;;;;;45.67;32.92;;;24.30;99.90;;;;;;5070063;28;20016;-82
2021/06/24 06:11:34;;;;;;;53.35;35.72;;;24.50;99.90;;;;;;5070445;28;20025;-82
2021/06/24 06:14:01;;;;;;;53.53;35.55;;;24.70;99.90;;;;;;5071818;28;20443;-81
2021/06/24 06:16:27;;;;;;;54.60;37.65;;;24.80;99.90;;;;;;5064892;28;20028;-82
2021/06/24 06:18:54;;;;;;;49.30;35.42;;;24.70;99.90;;;;;;5073588;28;20020;-82
2021/06/24 06:21:20;;;;;;;56.78;35.80;;;24.50;99.90;;;;;;5072668;28;20104;-82
2021/06/24 06:23:46;;;;;;;47.83;34.60;;;24.40;99.90;;;;;;5074509;28;20021;-82
2021/06/24 06:26:11;;;;;;;51.25;36.38;;;24.20;99.90;;;;;;5074269;28;20040;-81
2021/06/24 06:28:37;;;;;;;51.22;37.15;;;24.20;99.90;;;;;;5074414;28;20103;-82
2021/06/24 06:31:03;;;;;;;52.88;37.30;;;24.20;99.90;;;;;;5074910;28;20485;-82
2021/06/24 06:33:29;;;;;;;52.60;38.17;;;23.90;99.90;;;;;;5074974;28;20520;-82
2021/06/24 06:35:55;;;;;;;52.80;35.75;;;23.90;99.90;;;;;;5075453;28;20058;-82
2021/06/24 06:38:22;;;;;;;49.78;35.58;;;24.00;99.90;;;;;;5075355;28;20032;-82
2021/06/24 06:40:49;;;;;;;51.63;37.25;;;24.00;99.90;;;;;;5073822;28;20126;-81
2021/06/24 06:43:18;;;;;;;54.90;35.97;;;24.00;99.90;;;;;;5075367;28;20054;-82
2021/06/24 06:45:44;;;;;;;51.60;35.17;;;24.00;99.90;;;;;;5075196;28;20718;-82
2021/06/24 06:48:11;;;;;;;49.20;35.63;;;24.10;99.90;;;;;;5074904;28;20359;-82
2021/06/24 06:50:38;;;;;;;51.83;34.33;;;24.10;99.90;;;;;;5075245;28;20085;-82
2021/06/24 06:53:05;;;;;;;53.70;35.92;;;24.30;99.90;;;;;;5075121;28;20073;-82
2021/06/24 06:55:32;;;;;;;52.85;36.72;;;24.40;99.90;;;;;;5071318;28;20050;-82
2021/06/24 06:57:59;;;;;;;47.75;35.10;;;24.20;99.90;;;;;;5054962;28;20466;-82
2021/06/24 07:00:27;;;;;;;55.00;37.60;;;24.20;99.90;;;;;;5053801;28;20029;-82
2021/06/24 07:02:53;;;;;;;46.75;36.08;;;24.20;99.90;;;;;;5053741;28;20021;-82
2021/06/24 07:05:19;;;;;;;52.15;36.03;;;24.20;99.90;;;;;;5054849;28;20021;-82
2021/06/24 07:07:46;;;;;;;55.78;36.17;;;24.10;99.90;;;;;;5053592;28;20033;-82
2021/06/24 07:10:12;;;;;;;70.57;36.63;;;24.10;99.90;;;;;;5065674;28;20028;-82
2021/06/24 07:12:37;;;;;;;54.45;35.78;;;24.30;99.90;;;;;;5073466;28;20127;-82
2021/06/24 07:15:03;;;;;;;77.45;37.60;;;24.40;99.90;;;;;;5073308;28;20490;-82
2021/06/24 07:17:29;;;;;;;50.95;36.40;;;24.50;99.90;;;;;;5074649;28;20043;-82
2021/06/24 07:19:55;;;;;;;55.03;35.05;;;24.70;99.90;;;;;;5067999;28;20029;-81
2021/06/24 07:22:20;;;;;;;53.60;36.35;;;24.70;99.90;;;;;;5053355;28;20017;-82
2021/06/24 07:24:46;;;;;;;55.35;38.00;;;24.50;99.90;;;;;;5056547;28;20028;-82
2021/06/24 07:27:12;;;;;;;53.60;36.97;;;24.70;99.90;;;;;;5074150;28;20035;-82
2021/06/24 07:29:38;;;;;;;50.92;35.60;;;24.60;99.90;;;;;;5074393;28;20394;-82
2021/06/24 07:32:04;;;;;;;49.13;34.67;;;24.70;99.90;;;;;;5073171;28;20021;-82
2021/06/24 07:34:30;;;;;;;53.13;35.22;;;24.50;99.90;;;;;;5072882;28;20027;-82
2021/06/24 07:36:55;;;;;;;49.22;34.70;;;24.40;99.90;;;;;;5072984;28;20028;-81
2021/06/24 07:39:21;;;;;;;47.58;33.13;;;24.50;99.90;;;;;;5074310;28;20052;-82
2021/06/24 07:41:47;;;;;;;49.13;35.42;;;24.40;99.90;;;;;;5074218;28;20021;-82
2021/06/24 07:44:13;;;;;;;47.65;35.78;;;24.20;99.90;;;;;;5074318;28;20020;-82
2021/06/24 07:46:38;;;;;;;43.58;31.70;;;24.20;99.90;;;;;;5073895;28;20075;-82
2021/06/24 07:49:04;;;;;;;48.42;33.05;;;23.80;99.90;;;;;;5072649;28;20060;-82
2021/06/24 07:51:30;;;;;;;47.35;33.83;;;23.90;99.90;;;;;;5073659;28;20500;-82
2021/06/24 07:53:56;;;;;;;46.55;31.77;;;23.90;99.90;;;;;;5074069;28;20021;-82
2021/06/24 07:56:22;;;;;;;46.88;33.38;;;23.40;99.90;;;;;;5073890;28;20031;-82
2021/06/24 07:58:51;;;;;;;46.38;33.25;;;23.60;99.90;;;;;;5072314;28;20036;-82
2021/06/24 08:01:16;;;;;;;50.50;33.08;;;23.50;99.90;;;;;;5072524;28;20052;-82
2021/06/24 08:03:42;;;;;;;41.95;30.00;;;23.70;99.90;;;;;;5072546;28;20040;-82
2021/06/24 08:06:08;;;;;;;44.83;30.92;;;23.90;99.90;;;;;;5072248;28;20063;-82
2021/06/24 08:08:34;;;;;;;47.38;31.15;;;23.90;99.90;;;;;;5073667;28;20033;-82
2021/06/24 08:11:00;;;;;;;45.05;31.77;;;24.00;99.90;;;;;;5066831;28;20111;-82
2021/06/24 08:13:27;;;;;;;43.92;33.50;;;23.70;99.90;;;;;;5053499;28;20103;-82
2021/06/24 08:15:53;;;;;;;44.30;31.83;;;23.90;99.90;;;;;;5054642;28;20033;-82
2021/06/24 08:18:20;;;;;;;43.65;32.88;;;24.10;99.90;;;;;;5053358;28;20048;-82
2021/06/24 08:20:46;;;;;;;51.05;33.60;;;24.10;99.90;;;;;;5071743;28;20021;-82
2021/06/24 08:23:12;;;;;;;45.20;33.00;;;24.40;99.90;;;;;;5072151;28;20024;-82
2021/06/24 08:25:38;;;;;;;41.92;31.42;;;24.60;99.90;;;;;;5072092;28;20119;-82
2021/06/24 08:28:05;;;;;;;46.50;33.92;;;24.80;99.90;;;;;;5071282;28;20054;-82
2021/06/24 08:30:32;;;;;;;48.05;34.25;;;25.00;99.90;;;;;;5066469;28;20104;-82
2021/06/24 08:32:58;;;;;;;42.60;34.08;;;25.00;99.90;;;;;;5061955;28;20044;-82
2021/06/24 08:35:23;;;;;;;41.25;30.52;;;25.30;99.90;;;;;;5062063;28;20125;-82
2021/06/24 08:37:49;;;;;;;43.58;33.47;;;25.40;99.30;;;;;;5053065;28;20185;-82
2021/06/24 08:40:15;;;;;;;41.75;32.88;;;25.60;98.70;;;;;;5053750;28;20024;-82
2021/06/24 08:42:42;;;;;;;40.58;31.85;;;25.80;98.50;;;;;;5053005;28;20039;-82
2021/06/24 08:45:11;;;;;;;45.75;33.83;;;25.90;97.20;;;;;;5059283;28;20052;-82
2021/06/24 08:47:41;;;;;;;40.35;31.23;;;26.00;96.50;;;;;;5060001;28;20021;-82
2021/06/24 08:50:09;;;;;;;39.17;29.13;;;26.20;95.60;;;;;;5065416;28;20024;-81
2021/06/24 08:52:35;;;;;;;40.17;32.78;;;26.30;94.40;;;;;;5072059;28;20021;-82
2021/06/24 08:55:02;;;;;;;45.20;33.67;;;26.30;94.90;;;;;;5059107;28;20021;-82
2021/06/24 08:57:27;;;;;;;38.60;31.05;;;26.50;95.20;;;;;;5070439;28;20040;-81
2021/06/24 08:59:53;;;;;;;44.70;33.63;;;26.40;91.70;;;;;;5072638;28;20020;-82
2021/06/24 09:02:35;;;;;;;41.38;33.60;;;26.50;93.70;;;;;;5071523;28;20442;-81
2021/06/24 09:05:01;;;;;;;46.38;35.53;;;26.60;93.10;;;;;;5071158;28;20029;-82
2021/06/24 09:07:28;;;;;;;45.63;34.17;;;26.70;91.20;;;;;;5071025;28;20481;-82
2021/06/24 09:09:57;;;;;;;41.30;31.63;;;26.80;88.80;;;;;;5070903;28;20418;-82
2021/06/24 09:12:24;;;;;;;41.00;31.63;;;27.00;88.50;;;;;;5072535;28;20035;-82
2021/06/24 09:14:59;;;;;;;44.28;31.15;;;27.00;90.00;;;;;;5071400;28;20107;-82
2021/06/24 09:17:38;;;;;;;38.95;30.73;;;27.20;88.30;;;;;;5072708;28;20390;-82
2021/06/24 09:20:26;;;;;;;39.60;30.50;;;27.20;88.40;;;;;;5070672;28;20030;-82
2021/06/24 09:23:11;;;;;;;39.17;29.23;;;27.30;85.80;;;;;;5071387;28;20111;-82
2021/06/24 09:25:40;;;;;;;44.60;30.73;;;27.40;85.70;;;;;;5072890;28;20021;-82
2021/06/24 09:28:06;;;;;;;33.95;28.92;;;27.50;82.20;;;;;;5072765;28;20420;-81
2021/06/24 09:30:37;;;;;;;37.10;28.30;;;27.60;85.40;;;;;;5072605;28;20060;-81
2021/06/24 09:33:14;;;;;;;40.60;29.03;;;27.90;85.80;;;;;;5070721;28;20031;-82
2021/06/24 09:35:43;;;;;;;35.30;29.08;;;27.90;82.00;;;;;;5068795;28;20540;-81
2021/06/24 09:38:14;;;;;;;36.25;29.15;;;28.00;83.30;;;;;;5069064;28;20036;-82
2021/06/24 09:40:47;;;;;;;35.38;29.02;;;28.10;82.70;;;;;;5070442;28;20359;-81
2021/06/24 09:43:27;;;;;;;32.22;27.65;;;28.20;79.00;;;;;;5069065;28;20013;-82
2021/06/24 09:46:09;;;;;;;36.78;27.13;;;28.40;82.30;;;;;;5070229;28;20024;-82
2021/06/24 09:48:51;;;;;;;37.97;27.35;;;28.60;80.90;;;;;;5071232;28;20020;-82
2021/06/24 09:51:17;;;;;;;34.58;26.30;;;28.70;77.70;;;;;;5074497;28;20478;-82
2021/06/24 09:54:09;;;;;;;34.03;26.05;;;29.00;76.20;;;;;;5076280;28;20478;-82
2021/06/24 09:56:35;;;;;;;32.20;25.03;;;29.20;76.80;;;;;;5076287;28;20047;-81
2021/06/24 09:59:05;;;;;;;32.28;25.48;;;29.30;74.10;;;;;;5068208;28;20689;-82
2021/06/24 10:01:35;;;;;;;33.72;25.95;;;29.20;72.90;;;;;;5056062;28;20025;-81
2021/06/24 10:04:02;;;;;;;35.35;26.65;;;29.30;72.70;;;;;;5054747;28;20033;-82
2021/06/24 10:06:28;;;;;;;31.92;27.25;;;29.60;72.40;;;;;;5054768;28;20032;-81
2021/06/24 10:08:55;;;;;;;31.00;24.92;;;29.70;74.40;;;;;;5073033;28;20024;-81
2021/06/24 10:11:23;;;;;;;39.65;27.20;;;29.80;72.00;;;;;;5074577;28;20075;-81
2021/06/24 10:13:50;;;;;;;30.65;26.35;;;29.60;69.70;;;;;;5074256;28;20021;-81
2021/06/24 10:16:16;;;;;;;32.22;26.67;;;29.70;71.30;;;;;;5072583;28;20032;-81
2021/06/24 10:18:47;;;;;;;34.28;26.60;;;29.80;69.60;;;;;;5074010;28;20520;-81
2021/06/24 10:21:14;;;;;;;32.90;24.65;;;29.80;70.10;;;;;;5056099;28;20037;-81
2021/06/24 10:23:50;;;;;;;36.35;25.10;;;30.00;70.10;;;;;;5068348;28;20037;-81
2021/06/24 10:26:16;;;;;;;27.85;23.30;;;30.10;70.90;;;;;;5074468;28;20046;-81
2021/06/24 10:28:42;;;;;;;30.20;24.13;;;30.10;69.50;;;;;;5075559;28;20371;-81
2021/06/24 10:31:34;;;;;;;31.13;24.30;;;30.30;68.40;;;;;;5075659;28;20100;-81
2021/06/24 10:34:03;;;;;;;29.27;22.98;;;30.30;65.80;;;;;;5074372;28;20060;-81
2021/06/24 10:36:28;;;;;;;32.03;25.52;;;30.50;67.00;;;;;;5075485;28;20036;-81
2021/06/24 10:38:56;;;;;;;28.75;24.92;;;30.70;64.40;;;;;;5075275;28;20032;-81
2021/06/24 10:41:22;;;;;;;60.85;28.27;;;30.60;65.60;;;;;;5057401;28;20478;-81
2021/06/24 10:43:54;;;;;;;34.38;24.60;;;30.70;65.10;;;;;;5055418;28;20103;-81
2021/06/24 10:46:24;;;;;;;30.45;24.38;;;30.60;64.30;;;;;;5054588;28;20033;-81
2021/06/24 10:48:51;;;;;;;31.98;24.13;;;30.60;63.70;;;;;;5062866;28;20466;-81
2021/06/24 10:51:17;;;;;;;30.60;23.88;;;30.50;64.60;;;;;;5053975;28;20429;-81
2021/06/24 10:53:54;;;;;;;25.95;22.95;;;30.40;64.50;;;;;;5055157;28;20021;-81
2021/06/24 10:56:31;;;;;;;28.83;23.70;;;30.50;65.90;;;;;;5074780;28;20020;-81
2021/06/24 10:58:59;;;;;;;26.85;23.23;;;30.70;65.80;;;;;;5073831;28;20512;-79
2021/06/24 11:01:44;;;;;;;25.08;21.45;;;30.90;65.00;;;;;;5074848;28;20013;-79
2021/06/24 11:04:36;;;;;;;31.27;23.60;;;31.10;65.40;;;;;;5073782;28;20104;-79
2021/06/24 11:07:20;;;;;;;33.83;21.42;;;31.10;63.20;;;;;;5073627;28;20029;-79
2021/06/24 11:10:13;;;;;;;25.85;22.02;;;31.30;62.50;;;;;;5074669;28;20028;-79
2021/06/24 11:12:57;;;;;;;26.73;22.23;;;31.30;61.30;;;;;;5073482;28;20120;-79
2021/06/24 11:15:41;;;;;;;27.02;23.00;;;31.50;60.70;;;;;;5071129;28;20107;-79
2021/06/24 11:18:07;;;;;;;24.00;19.80;;;31.80;60.20;;;;;;5073065;28;20146;-79
2021/06/24 11:20:42;;;;;;;23.67;20.27;;;32.00;59.70;;;;;;5074496;28;20494;-79
2021/06/24 11:23:31;;;;;;;23.48;19.15;;;32.10;57.00;;;;;;5074385;28;20043;-79
2021/06/24 11:26:13;;;;;;;32.53;20.10;;;31.80;57.10;;;;;;5074748;28;20103;-79
2021/06/24 11:29:04;;;;;;;26.10;19.55;;;31.70;58.30;;;;;;5073329;28;20021;-79
2021/06/24 11:31:33;;;;;;;30.73;21.98;;;31.60;58.30;;;;;;5074116;28;20032;-79
2021/06/24 11:36:54;;;;;;;27.90;19.63;;;31.40;59.40;;;;;;5074664;28;20032;-78
2021/06/24 11:39:34;;;;;;;24.92;21.80;;;31.40;61.50;;;;;;5073192;28;20044;-78
2021/06/24 11:42:08;;;;;;;27.65;20.27;;;31.30;62.50;;;;;;5073235;28;20043;-79
2021/06/24 11:44:38;;;;;;;25.27;20.27;;;31.30;62.60;;;;;;5074140;28;20470;-79
2021/06/24 11:47:10;;;;;;;27.52;21.38;;;31.40;61.80;;;;;;5074179;28;20070;-79
2021/06/24 12:04:21;;;;;;;24.88;20.38;;;31.10;63.30;;;;;;5073980;28;20178;-79
2021/06/24 12:06:52;;;;;;;24.38;19.58;;;31.20;63.20;;;;;;5073326;28;20483;-78
2021/06/24 12:09:39;;;;;;;28.13;20.08;;;31.10;62.50;;;;;;5072448;28;20020;-78
2021/06/24 12:12:06;;;;;;;27.63;19.60;;;31.00;60.60;;;;;;5057419;28;20069;-79
2021/06/24 12:14:33;;;;;;;24.33;19.42;;;31.10;60.40;;;;;;5058831;28;20550;-78
2021/06/24 12:17:13;;;;;;;28.27;20.95;;;31.10;60.00;;;;;;5072257;28;20025;-79
2021/06/24 12:19:55;;;;;;;27.27;20.25;;;31.30;60.40;;;;;;5071890;28;20033;-79
2021/06/24 12:22:23;;;;;;;33.38;20.45;;;31.40;58.60;;;;;;5072250;28;20024;-78
2021/06/24 12:24:50;;;;;;;24.38;19.20;;;31.30;57.90;;;;;;5072165;28;20020;-79
2021/06/24 12:27:34;;;;;;;27.05;20.25;;;31.20;57.90;;;;;;5073784;28;20111;-79
2021/06/24 12:30:06;;;;;;;22.58;19.05;;;31.10;58.60;;;;;;5073177;28;20093;-79
2021/06/24 12:32:32;;;;;;;29.52;19.67;;;30.90;60.10;;;;;;5073109;28;20017;-79
2021/06/24 12:34:59;;;;;;;34.78;19.95;;;31.10;61.60;;;;;;5073243;28;20078;-78
2021/06/24 12:37:30;;;;;;;28.10;19.02;;;31.50;59.30;;;;;;5064727;28;20044;-78
2021/06/24 12:39:57;;;;;;;21.33;18.73;;;31.80;55.60;;;;;;5061796;28;20401;-79
2021/06/24 12:42:22;;;;;;;23.52;17.40;;;32.00;55.70;;;;;;5060545;28;20036;-78
2021/06/24 12:44:48;;;;;;;22.45;18.92;;;32.10;55.20;;;;;;5062934;28;20031;-79
2021/06/24 12:47:34;;;;;;;25.20;19.75;;;32.20;55.50;;;;;;5061982;28;20029;-78
2021/06/24 12:50:21;;;;;;;27.05;18.73;;;32.50;55.30;;;;;;5061105;28;20059;-78